Beverly Farms, Massachusetts
Current Conditions -  °F | °C
As of 12:53 PM on Saturday 25 Oct 2014 (Local Time) from KBVY Reporting Station
Clear Clear  
Wind Chill: 64°   Ceiling: Unl
Heat Index: 64°   Visibility: 10mi
Dew Point: 39°   Wind: 12mph
Humidity: 40%   Direction: 280°W
Pressure: 29.64"   Gusts: 18mph
Location:  42.5685°N, 70.8619°W
Report Text: KBVY 251653Z 28010G16KT 10SM CLR 18/04 A2964 RMK AO2 SLP034 T01780039
Loading
Personal Weather Stations






























Interactive Weather Map
Tropical Storm Tracking
New forecast layout! Learn more

10-Day Weather Forecast

Advertisements
Track Severe Weather on mobile